createdAt,value
2023-02-14T00:00:45.933Z,30.33
2023-02-14T00:03:14.129Z,31.88
2023-02-14T00:05:40.761Z,33.35
2023-02-14T00:08:07.512Z,30.70
2023-02-14T00:10:34.242Z,33.65
2023-02-14T00:13:00.890Z,32.33
2023-02-14T00:15:27.688Z,28.85
2023-02-14T00:17:56.565Z,29.27
2023-02-14T00:20:23.562Z,28.08
2023-02-14T00:22:50.247Z,30.52
2023-02-14T00:25:17.170Z,32.95
2023-02-14T00:27:44.047Z,30.70
2023-02-14T00:30:12.823Z,32.80
2023-02-14T00:32:40.582Z,29.60
2023-02-14T00:35:08.843Z,26.98
2023-02-14T00:37:35.519Z,33.55
2023-02-14T00:40:02.394Z,31.67
2023-02-14T00:42:29.089Z,30.83
2023-02-14T00:44:55.781Z,29.13
2023-02-14T00:47:22.683Z,28.63
2023-02-14T00:49:49.420Z,30.15
2023-02-14T00:52:16.114Z,32.97
2023-02-14T00:54:42.748Z,28.05
2023-02-14T00:57:09.418Z,33.47
2023-02-14T00:59:36.309Z,34.60
2023-02-14T01:02:04.255Z,32.60
2023-02-14T01:04:31.035Z,32.20
2023-02-14T01:07:00.812Z,30.27
2023-02-14T01:09:27.506Z,33.95
2023-02-14T01:11:54.313Z,31.75
2023-02-14T01:14:21.022Z,28.95
2023-02-14T01:16:49.561Z,28.50
2023-02-14T01:19:16.584Z,30.13
2023-02-14T01:21:43.727Z,30.20
2023-02-14T01:24:10.829Z,31.77
2023-02-14T01:26:37.604Z,27.08
2023-02-14T01:29:05.133Z,27.73
2023-02-14T01:31:34.168Z,32.22
2023-02-14T01:34:01.455Z,27.48
2023-02-14T01:36:32.073Z,28.98
2023-02-14T01:39:01.197Z,27.30
2023-02-14T01:41:33.056Z,31.08
2023-02-14T01:44:02.608Z,30.92
2023-02-14T01:46:34.603Z,29.92
2023-02-14T01:49:20.113Z,29.27
2023-02-14T01:51:53.321Z,30.85
2023-02-14T01:54:20.621Z,30.08
2023-02-14T01:56:52.168Z,29.55
2023-02-14T01:59:21.752Z,30.13
2023-02-14T02:01:53.457Z,35.22
2023-02-14T02:04:25.840Z,32.53
2023-02-14T02:06:59.684Z,34.58
2023-02-14T02:09:35.068Z,32.40
2023-02-14T02:12:11.095Z,30.27
2023-02-14T02:14:37.990Z,31.95
2023-02-14T02:17:20.606Z,31.45
2023-02-14T02:20:23.218Z,32.42
2023-02-14T02:22:55.644Z,30.25
2023-02-14T02:25:56.491Z,26.77
2023-02-14T02:29:08.674Z,29.98
2023-02-14T02:32:12.782Z,28.42
2023-02-14T02:34:57.748Z,30.45
2023-02-14T02:37:56.789Z,29.45
2023-02-14T02:40:33.372Z,31.70
2023-02-14T02:43:26.297Z,32.20
2023-02-14T02:46:18.031Z,33.55
2023-02-14T02:48:51.207Z,28.90
2023-02-14T02:51:52.957Z,32.55
2023-02-14T02:54:39.923Z,33.85
2023-02-14T02:57:12.426Z,31.33
2023-02-14T02:59:42.255Z,28.48
2023-02-14T03:02:21.631Z,26.67
2023-02-14T03:04:54.666Z,30.40
2023-02-14T03:07:36.229Z,32.42
2023-02-14T03:10:18.182Z,25.88
2023-02-14T03:13:09.766Z,28.05
2023-02-14T03:15:51.510Z,30.98
2023-02-14T03:18:48.064Z,30.48
2023-02-14T03:21:51.809Z,29.73
2023-02-14T03:24:45.580Z,28.77
2023-02-14T03:27:26.074Z,29.17
2023-02-14T03:30:09.864Z,26.98
2023-02-14T03:32:40.062Z,32.03
2023-02-14T03:35:31.033Z,30.70
2023-02-14T03:38:05.887Z,31.52
2023-02-14T03:40:35.922Z,27.90
2023-02-14T03:43:09.935Z,32.40
2023-02-14T03:45:49.153Z,30.17
2023-02-14T03:48:16.724Z,26.63
2023-02-14T03:50:46.104Z,25.98
2023-02-14T03:53:14.229Z,26.58
2023-02-14T03:55:47.126Z,26.48
2023-02-14T03:58:27.651Z,29.02
2023-02-14T04:00:59.775Z,35.05
2023-02-14T04:03:27.789Z,31.10
2023-02-14T04:05:54.848Z,33.83
2023-02-14T04:08:26.372Z,31.65
2023-02-14T04:10:53.850Z,31.23
2023-02-14T04:13:21.027Z,32.95
2023-02-14T04:15:47.786Z,30.58
2023-02-14T04:18:33.069Z,31.73
2023-02-14T04:21:00.041Z,32.95
2023-02-14T04:23:26.890Z,33.40
2023-02-14T04:25:53.713Z,31.90
2023-02-14T04:28:20.408Z,28.73
2023-02-14T04:30:47.064Z,34.17
2023-02-14T04:33:13.711Z,30.33
2023-02-14T04:35:40.336Z,30.17
2023-02-14T04:38:07.849Z,28.73
2023-02-14T04:40:34.459Z,30.58
2023-02-14T04:43:01.665Z,33.72
2023-02-14T04:45:28.299Z,28.85
2023-02-14T04:47:55.240Z,29.35
2023-02-14T04:50:23.618Z,29.05
2023-02-14T04:52:50.264Z,30.45
2023-02-14T04:55:17.001Z,35.03
2023-02-14T04:57:43.685Z,31.83
2023-02-14T05:00:11.303Z,33.17
2023-02-14T05:02:38.006Z,31.67
2023-02-14T05:05:05.036Z,30.75
2023-02-14T05:07:31.847Z,29.52
2023-02-14T05:09:58.578Z,33.10
2023-02-14T05:12:25.202Z,31.13
2023-02-14T05:14:51.863Z,32.95
2023-02-14T05:17:18.687Z,33.95
2023-02-14T05:19:45.439Z,31.77
2023-02-14T05:22:12.147Z,34.10
2023-02-14T05:24:39.086Z,33.33
2023-02-14T05:27:05.791Z,30.63
2023-02-14T05:29:32.475Z,39.17
2023-02-14T05:31:59.360Z,32.83
2023-02-14T05:34:26.114Z,51.60
2023-02-14T05:36:54.197Z,37.47
2023-02-14T05:39:20.998Z,36.90
2023-02-14T05:41:49.158Z,30.42
2023-02-14T05:44:15.982Z,33.03
2023-02-14T05:46:42.623Z,33.88
2023-02-14T05:49:09.311Z,38.03
2023-02-14T05:51:36.032Z,32.17
2023-02-14T05:54:02.644Z,33.13
2023-02-14T05:56:29.288Z,34.20
2023-02-14T05:58:55.983Z,32.78
2023-02-14T06:01:22.907Z,35.33
2023-02-14T06:03:49.560Z,39.20
2023-02-14T06:06:16.216Z,35.78
2023-02-14T06:08:42.867Z,39.95
2023-02-14T06:11:09.546Z,36.25
2023-02-14T06:13:36.182Z,31.67
2023-02-14T06:16:04.660Z,37.92
2023-02-14T06:18:37.489Z,36.45
2023-02-14T06:21:04.465Z,35.88
2023-02-14T06:23:31.084Z,36.05
2023-02-14T06:25:57.798Z,36.53
2023-02-14T06:28:24.473Z,34.28
2023-02-14T06:30:51.611Z,35.47
2023-02-14T06:33:18.303Z,33.67
2023-02-14T06:35:44.945Z,32.13
2023-02-14T06:38:11.565Z,34.97
2023-02-14T06:40:38.280Z,32.72
2023-02-14T06:43:05.551Z,30.92
2023-02-14T06:45:33.210Z,41.35
2023-02-14T06:48:00.495Z,36.22
2023-02-14T06:50:27.246Z,34.08
2023-02-14T06:52:53.975Z,44.22
2023-02-14T06:55:20.859Z,36.70
2023-02-14T06:57:47.667Z,35.95
2023-02-14T07:00:15.026Z,38.47
2023-02-14T07:02:42.749Z,39.08
2023-02-14T07:05:09.466Z,36.22
2023-02-14T07:07:36.247Z,41.40
2023-02-14T07:10:03.252Z,44.95
2023-02-14T07:12:30.110Z,43.13
2023-02-14T07:14:56.942Z,42.10
2023-02-14T07:17:23.597Z,44.63
2023-02-14T07:19:50.207Z,38.10
2023-02-14T07:22:16.953Z,44.83
2023-02-14T07:24:46.637Z,37.13
2023-02-14T07:27:13.411Z,36.95
2023-02-14T07:29:40.015Z,37.10
2023-02-14T07:32:07.770Z,37.30
2023-02-14T07:34:34.754Z,38.95
2023-02-14T07:37:01.983Z,39.28
2023-02-14T07:39:28.609Z,41.55
2023-02-14T07:41:55.221Z,40.50
2023-02-14T07:44:22.732Z,41.97
2023-02-14T07:46:49.470Z,41.40
2023-02-14T07:49:16.233Z,40.85
2023-02-14T07:51:42.860Z,41.10
2023-02-14T07:54:09.533Z,36.78
2023-02-14T07:56:36.223Z,35.05
2023-02-14T07:59:03.103Z,39.13
2023-02-14T08:01:29.801Z,35.03
2023-02-14T08:03:59.507Z,37.03
2023-02-14T08:06:28.031Z,34.55
2023-02-14T08:08:54.787Z,43.22
2023-02-14T08:11:39.950Z,39.20
2023-02-14T08:14:06.676Z,41.92
2023-02-14T08:16:34.776Z,37.55
2023-02-14T08:19:02.002Z,36.95
2023-02-14T08:21:28.720Z,35.20
2023-02-14T08:23:55.425Z,38.70
2023-02-14T08:26:22.076Z,36.70
2023-02-14T08:28:51.760Z,34.60
2023-02-14T08:31:34.333Z,33.65
2023-02-14T08:34:05.471Z,32.75
2023-02-14T08:36:32.785Z,36.40
2023-02-14T08:38:59.511Z,34.28
2023-02-14T08:41:26.306Z,33.58
2023-02-14T08:43:53.208Z,35.55
2023-02-14T08:46:19.994Z,35.92
2023-02-14T08:48:46.680Z,36.70
2023-02-14T08:51:14.600Z,33.03
2023-02-14T08:53:42.258Z,36.45
2023-02-14T08:56:13.569Z,37.75
2023-02-14T08:58:40.876Z,34.60
2023-02-14T09:01:13.220Z,31.02
2023-02-14T09:03:40.062Z,30.38
2023-02-14T09:06:09.237Z,32.70
2023-02-14T09:08:39.693Z,33.88
2023-02-14T09:11:18.903Z,30.95
2023-02-14T09:13:46.183Z,36.38
2023-02-14T09:16:14.468Z,33.20
2023-02-14T09:18:41.216Z,36.85
2023-02-14T09:21:15.223Z,35.22
2023-02-14T09:23:42.115Z,27.48
2023-02-14T09:26:10.989Z,30.58
2023-02-14T09:28:38.294Z,26.85
2023-02-14T09:31:17.392Z,29.15
2023-02-14T09:34:04.175Z,28.58
2023-02-14T09:36:49.454Z,26.27
2023-02-14T09:39:16.276Z,30.92
2023-02-14T09:42:10.755Z,27.48
2023-02-14T09:44:47.739Z,30.08
2023-02-14T09:47:37.447Z,27.65
2023-02-14T09:50:26.383Z,27.48
2023-02-14T09:52:57.707Z,28.98
2023-02-14T09:55:26.920Z,34.20
2023-02-14T09:58:12.395Z,27.80
2023-02-14T10:00:46.642Z,31.60
2023-02-14T10:03:22.318Z,29.50
2023-02-14T10:05:56.965Z,27.73
2023-02-14T10:08:42.059Z,27.48
2023-02-14T10:11:20.348Z,29.48
2023-02-14T10:13:52.213Z,25.38
2023-02-14T10:16:27.175Z,25.42
2023-02-14T10:19:02.907Z,25.73
2023-02-14T10:21:37.465Z,26.20
2023-02-14T10:24:20.598Z,28.13
2023-02-14T10:26:48.736Z,26.42
2023-02-14T10:29:17.313Z,27.20
2023-02-14T10:31:55.961Z,25.40
2023-02-14T10:34:35.829Z,28.15
2023-02-14T10:37:21.155Z,26.50
2023-02-14T10:39:57.595Z,25.10
2023-02-14T10:42:44.550Z,30.23
2023-02-14T10:45:39.688Z,31.80
2023-02-14T10:48:24.622Z,28.48
2023-02-14T10:51:12.922Z,31.38
2023-02-14T10:54:25.909Z,27.88
2023-02-14T10:57:00.313Z,29.90
2023-02-14T10:59:39.349Z,29.20
2023-02-14T11:02:06.517Z,28.75
2023-02-14T11:04:33.244Z,28.27
2023-02-14T11:06:59.903Z,33.38
2023-02-14T11:09:26.653Z,28.60
2023-02-14T11:11:55.932Z,27.05
2023-02-14T11:14:32.652Z,29.38
2023-02-14T11:17:00.841Z,26.77
2023-02-14T11:19:36.855Z,32.20
2023-02-14T11:22:04.480Z,27.35
2023-02-14T11:24:41.553Z,27.58
2023-02-14T11:27:17.556Z,30.85
2023-02-14T11:29:48.262Z,30.45
2023-02-14T11:32:23.760Z,31.27
2023-02-14T11:34:53.968Z,31.98
2023-02-14T11:37:23.507Z,29.55
2023-02-14T11:39:50.912Z,30.60
2023-02-14T11:42:36.251Z,31.17
2023-02-14T11:45:05.344Z,30.08
2023-02-14T11:47:34.697Z,31.58
2023-02-14T11:50:06.221Z,33.17
2023-02-14T11:52:34.087Z,31.13
2023-02-14T11:55:01.242Z,29.70
2023-02-14T11:57:33.077Z,30.92
2023-02-14T12:00:02.232Z,31.45
2023-02-14T12:02:41.710Z,31.73
2023-02-14T12:05:28.680Z,27.55
2023-02-14T12:08:00.958Z,34.72
2023-02-14T12:10:30.930Z,31.30
2023-02-14T12:13:09.577Z,28.35
2023-02-14T12:15:40.579Z,29.67
2023-02-14T12:18:47.827Z,29.85
2023-02-14T12:21:26.156Z,26.80
2023-02-14T12:24:04.713Z,28.63
2023-02-14T12:26:55.484Z,29.33
2023-02-14T12:29:40.324Z,26.98
2023-02-14T12:32:27.561Z,32.20
2023-02-14T12:35:19.108Z,29.35
2023-02-14T12:37:56.002Z,26.48
2023-02-14T12:41:00.949Z,26.17
2023-02-14T12:43:50.944Z,25.63
2023-02-14T12:46:21.246Z,25.13
2023-02-14T12:49:00.316Z,24.70
2023-02-14T12:51:54.509Z,26.33
2023-02-14T12:54:39.967Z,28.77
2023-02-14T12:57:27.402Z,25.35
2023-02-14T13:00:09.537Z,24.73
2023-02-14T13:03:01.581Z,29.50
2023-02-14T13:05:41.941Z,24.80
2023-02-14T13:08:27.609Z,30.33
2023-02-14T13:11:07.564Z,27.60
2023-02-14T13:14:05.048Z,25.67
2023-02-14T13:17:09.297Z,31.73
2023-02-14T13:20:01.764Z,26.58
2023-02-14T13:22:29.770Z,30.10
2023-02-14T13:24:59.909Z,25.77
2023-02-14T13:27:31.527Z,28.35
2023-02-14T13:30:01.266Z,28.48
2023-02-14T13:32:32.206Z,24.90
2023-02-14T13:34:59.308Z,27.13
2023-02-14T13:37:27.470Z,29.25
2023-02-14T13:39:56.734Z,27.08
2023-02-14T13:42:46.722Z,27.85
2023-02-14T13:45:37.576Z,26.23
2023-02-14T13:48:12.010Z,26.52
2023-02-14T13:50:41.484Z,25.70
2023-02-14T13:53:12.751Z,27.00
2023-02-14T13:55:44.069Z,25.58
2023-02-14T13:58:24.297Z,25.95
2023-02-14T14:00:52.927Z,24.85
2023-02-14T14:03:28.932Z,27.27
2023-02-14T14:06:10.868Z,31.33
2023-02-14T14:08:39.601Z,26.52
2023-02-14T14:11:12.652Z,28.70
2023-02-14T14:13:42.800Z,25.00
2023-02-14T14:16:27.763Z,25.65
2023-02-14T14:19:04.911Z,27.05
2023-02-14T14:21:35.461Z,31.50
2023-02-14T14:24:24.306Z,29.20
2023-02-14T14:27:18.570Z,24.83
2023-02-14T14:29:54.165Z,27.38
2023-02-14T14:32:30.620Z,27.50
2023-02-14T14:35:06.636Z,25.77
2023-02-14T14:37:35.577Z,26.88
2023-02-14T14:40:08.282Z,31.52
2023-02-14T14:42:37.444Z,27.85
2023-02-14T14:45:17.273Z,28.85
2023-02-14T14:47:45.540Z,29.73
2023-02-14T14:50:29.154Z,27.02
2023-02-14T14:52:58.153Z,28.02
2023-02-14T14:55:27.322Z,25.58
2023-02-14T14:57:59.612Z,26.95
2023-02-14T15:00:30.836Z,26.27
2023-02-14T15:03:01.407Z,30.70
2023-02-14T15:05:29.915Z,26.73
2023-02-14T15:07:58.428Z,26.52
2023-02-14T15:10:28.517Z,27.10
2023-02-14T15:13:16.286Z,30.85
2023-02-14T15:15:48.881Z,25.33
2023-02-14T15:18:15.690Z,30.38
2023-02-14T15:20:42.853Z,30.67
2023-02-14T15:23:18.115Z,27.45
2023-02-14T15:25:46.428Z,27.02
2023-02-14T15:28:17.516Z,27.08
2023-02-14T15:30:44.925Z,31.08
2023-02-14T15:33:11.906Z,30.00
2023-02-14T15:35:42.490Z,28.30
2023-02-14T15:38:10.937Z,28.85
2023-02-14T15:40:38.967Z,28.10
2023-02-14T15:43:17.827Z,26.27
2023-02-14T15:45:50.291Z,26.95
2023-02-14T15:48:19.294Z,28.02
2023-02-14T15:50:59.074Z,30.90
2023-02-14T15:53:31.982Z,29.67
2023-02-14T15:56:11.009Z,32.17
2023-02-14T15:58:38.774Z,30.88
2023-02-14T16:01:06.556Z,28.38
2023-02-14T16:03:37.152Z,28.58
2023-02-14T16:06:04.980Z,29.13
2023-02-14T16:08:40.136Z,26.23
2023-02-14T16:11:16.122Z,26.05
2023-02-14T16:13:44.999Z,26.75
2023-02-14T16:16:13.842Z,27.70
2023-02-14T16:18:43.557Z,28.63
2023-02-14T16:21:19.727Z,26.27
2023-02-14T16:23:48.263Z,27.38
2023-02-14T16:26:15.024Z,27.48
2023-02-14T16:28:43.528Z,27.05
2023-02-14T16:31:15.772Z,23.92
2023-02-14T16:33:42.763Z,23.73
2023-02-14T16:36:17.992Z,29.17
2023-02-14T16:38:45.756Z,26.30
2023-02-14T16:41:29.035Z,24.23
2023-02-14T16:43:56.522Z,26.20
2023-02-14T16:46:25.834Z,28.92
2023-02-14T16:48:53.016Z,28.33
2023-02-14T16:51:22.077Z,25.60
2023-02-14T16:53:49.040Z,26.80
2023-02-14T16:56:21.384Z,33.72
2023-02-14T16:58:48.304Z,27.27
2023-02-14T17:01:15.022Z,27.67
2023-02-14T17:03:42.968Z,28.40
2023-02-14T17:06:11.563Z,27.30
2023-02-14T17:08:39.977Z,28.73
2023-02-14T17:11:07.180Z,28.33
2023-02-14T17:13:35.742Z,27.90
2023-02-14T17:16:04.446Z,30.67
2023-02-14T17:18:31.751Z,26.45
2023-02-14T17:20:59.418Z,28.77
2023-02-14T17:23:26.778Z,28.35
2023-02-14T17:25:54.066Z,26.52
2023-02-14T17:28:21.968Z,28.13
2023-02-14T17:30:48.932Z,28.70
2023-02-14T17:33:15.960Z,26.45
2023-02-14T17:35:42.827Z,26.88
2023-02-14T17:38:09.950Z,29.15
2023-02-14T17:40:36.906Z,26.50
2023-02-14T17:43:04.036Z,26.98
2023-02-14T17:45:30.948Z,27.55
2023-02-14T17:47:57.740Z,28.70
2023-02-14T17:50:24.501Z,30.55
2023-02-14T17:52:55.560Z,24.55
2023-02-14T17:55:22.904Z,27.90
2023-02-14T17:57:52.638Z,30.40
2023-02-14T18:00:24.124Z,26.42
2023-02-14T18:02:50.844Z,25.65
2023-02-14T18:05:17.592Z,26.90
2023-02-14T18:07:44.562Z,25.42
2023-02-14T18:10:14.472Z,25.55
2023-02-14T18:12:41.350Z,24.20
2023-02-14T18:15:08.428Z,27.83
2023-02-14T18:17:35.120Z,26.65
2023-02-14T18:20:01.860Z,24.17
2023-02-14T18:22:28.813Z,26.90
2023-02-14T18:24:58.859Z,27.73
2023-02-14T18:27:26.204Z,25.48
2023-02-14T18:29:53.305Z,25.35
2023-02-14T18:32:20.334Z,24.98
2023-02-14T18:34:47.195Z,25.52
2023-02-14T18:37:14.322Z,25.30
2023-02-14T18:39:41.148Z,27.33
2023-02-14T18:42:07.789Z,29.73
2023-02-14T18:44:34.537Z,27.88
2023-02-14T18:47:02.151Z,26.98
2023-02-14T18:49:28.975Z,26.60
2023-02-14T18:51:57.411Z,26.33
2023-02-14T18:54:24.478Z,25.75
2023-02-14T18:56:51.296Z,27.65
2023-02-14T18:59:18.235Z,24.13
2023-02-14T19:01:45.552Z,28.55
2023-02-14T19:04:12.919Z,25.05
2023-02-14T19:06:41.176Z,24.63
2023-02-14T19:09:10.972Z,25.00
2023-02-14T19:11:37.788Z,26.42
2023-02-14T19:14:09.960Z,27.92
2023-02-14T19:16:42.186Z,30.77
2023-02-14T19:19:11.361Z,26.65
2023-02-14T19:21:38.231Z,25.90
2023-02-14T19:24:07.187Z,30.15
2023-02-14T19:26:37.794Z,24.10
2023-02-14T19:29:07.627Z,25.60
2023-02-14T19:31:37.574Z,26.15
2023-02-14T19:34:06.405Z,26.92
2023-02-14T19:36:36.380Z,25.42
2023-02-14T19:39:03.929Z,28.42
2023-02-14T19:41:34.481Z,27.02
2023-02-14T19:44:02.638Z,25.63
2023-02-14T19:46:29.596Z,25.13
2023-02-14T19:48:57.645Z,27.27
2023-02-14T19:51:26.596Z,33.15
2023-02-14T19:53:53.855Z,26.73
2023-02-14T19:56:25.978Z,30.80
2023-02-14T19:58:53.101Z,26.90
2023-02-14T20:01:43.078Z,25.23
2023-02-14T20:04:15.303Z,24.60
2023-02-14T20:06:43.244Z,24.90
2023-02-14T20:09:10.077Z,28.10
2023-02-14T20:11:46.801Z,30.27
2023-02-14T20:14:14.337Z,24.90
2023-02-14T20:16:41.305Z,29.30
2023-02-14T20:19:12.902Z,28.92
2023-02-14T20:21:41.903Z,28.13
2023-02-14T20:24:09.232Z,28.50
2023-02-14T20:26:37.375Z,24.30
2023-02-14T20:29:06.162Z,29.88
2023-02-14T20:31:34.232Z,25.17
2023-02-14T20:34:01.565Z,30.65
2023-02-14T20:36:28.735Z,27.98
2023-02-14T20:39:00.024Z,29.00
2023-02-14T20:41:27.866Z,29.25
2023-02-14T20:43:55.239Z,29.80
2023-02-14T20:46:22.537Z,27.17
2023-02-14T20:48:51.089Z,27.10
2023-02-14T20:51:19.997Z,25.52
2023-02-14T20:53:47.228Z,26.73
2023-02-14T20:56:14.716Z,25.38
2023-02-14T20:58:41.962Z,29.17
2023-02-14T21:01:17.275Z,28.90
2023-02-14T21:03:50.824Z,25.98
2023-02-14T21:06:20.618Z,27.60
2023-02-14T21:08:47.665Z,29.48
2023-02-14T21:11:16.449Z,26.55
2023-02-14T21:13:43.356Z,28.17
2023-02-14T21:16:12.495Z,29.88
2023-02-14T21:18:39.226Z,28.13
2023-02-14T21:21:14.539Z,28.67
2023-02-14T21:23:42.233Z,29.08
2023-02-14T21:26:09.672Z,30.58
2023-02-14T21:28:36.340Z,29.88
2023-02-14T21:31:08.256Z,31.50
2023-02-14T21:33:35.862Z,29.23
2023-02-14T21:36:13.796Z,28.38
2023-02-14T21:38:40.886Z,27.27
2023-02-14T21:41:10.326Z,29.45
2023-02-14T21:43:39.132Z,30.58
2023-02-14T21:46:07.478Z,31.88
2023-02-14T21:48:53.925Z,31.85
2023-02-14T21:51:20.939Z,35.65
2023-02-14T21:53:48.112Z,29.17
2023-02-14T21:56:18.080Z,32.25
2023-02-14T21:58:44.840Z,32.58
2023-02-14T22:01:22.557Z,28.65
2023-02-14T22:03:49.371Z,27.23
2023-02-14T22:06:16.329Z,31.13
2023-02-14T22:08:43.125Z,33.95
2023-02-14T22:11:15.516Z,31.55
2023-02-14T22:13:42.559Z,29.45
2023-02-14T22:16:15.214Z,35.08
2023-02-14T22:18:42.325Z,32.97
2023-02-14T22:21:14.383Z,34.47
2023-02-14T22:23:41.568Z,34.55
2023-02-14T22:26:18.525Z,29.92
2023-02-14T22:28:47.256Z,31.00
2023-02-14T22:31:15.393Z,33.35
2023-02-14T22:33:42.534Z,34.80
2023-02-14T22:36:09.531Z,34.28
2023-02-14T22:38:36.841Z,34.17
2023-02-14T22:41:21.868Z,35.10
2023-02-14T22:43:49.251Z,36.05
2023-02-14T22:46:27.475Z,37.58
2023-02-14T22:48:55.116Z,32.10
2023-02-14T22:51:26.169Z,36.08
2023-02-14T22:53:55.234Z,37.50
2023-02-14T22:56:24.273Z,36.22
2023-02-14T22:58:59.066Z,34.60
2023-02-14T23:01:26.028Z,35.47
2023-02-14T23:03:55.333Z,34.95
2023-02-14T23:06:23.281Z,36.38
2023-02-14T23:08:50.010Z,34.65
2023-02-14T23:11:18.826Z,35.97
2023-02-14T23:14:04.747Z,33.22
2023-02-14T23:16:49.982Z,35.15
2023-02-14T23:19:40.739Z,35.10
2023-02-14T23:22:20.581Z,32.92
2023-02-14T23:24:48.989Z,37.45
2023-02-14T23:27:17.621Z,37.47
2023-02-14T23:29:44.265Z,39.05
2023-02-14T23:32:10.967Z,35.53
2023-02-14T23:34:41.324Z,39.40
2023-02-14T23:37:08.641Z,33.53
2023-02-14T23:39:38.298Z,40.10
2023-02-14T23:42:13.543Z,35.72
2023-02-14T23:44:40.568Z,34.88
2023-02-14T23:47:08.902Z,37.58
2023-02-14T23:49:37.214Z,35.45
2023-02-14T23:52:06.605Z,33.08
2023-02-14T23:54:33.821Z,33.75
2023-02-14T23:57:00.625Z,32.63
2023-02-14T23:59:27.440Z,37.08
